sensor_id;sensor_type;location;lat;lon;timestamp;P1;durP1;ratioP1;P2;durP2;ratioP2
41875;SDS011;27555;50.808;4.402;2023-04-06T00:00:52;12.77;;;6.70;;
41875;SDS011;27555;50.808;4.402;2023-04-06T00:03:18;12.52;;;6.45;;
41875;SDS011;27555;50.808;4.402;2023-04-06T00:05:44;16.25;;;7.75;;
41875;SDS011;27555;50.808;4.402;2023-04-06T00:08:09;18.42;;;7.72;;
41875;SDS011;27555;50.808;4.402;2023-04-06T00:10:36;14.52;;;7.38;;
41875;SDS011;27555;50.808;4.402;2023-04-06T00:13:01;13.80;;;6.45;;
41875;SDS011;27555;50.808;4.402;2023-04-06T00:15:27;12.48;;;7.05;;
41875;SDS011;27555;50.808;4.402;2023-04-06T00:17:53;17.02;;;6.90;;
41875;SDS011;27555;50.808;4.402;2023-04-06T00:20:18;12.95;;;6.95;;
41875;SDS011;27555;50.808;4.402;2023-04-06T00:22:44;27.15;;;9.50;;
41875;SDS011;27555;50.808;4.402;2023-04-06T00:25:10;16.05;;;7.30;;
41875;SDS011;27555;50.808;4.402;2023-04-06T00:27:36;14.02;;;7.35;;
41875;SDS011;27555;50.808;4.402;2023-04-06T00:30:05;16.75;;;7.00;;
41875;SDS011;27555;50.808;4.402;2023-04-06T00:32:32;15.52;;;8.48;;
41875;SDS011;27555;50.808;4.402;2023-04-06T00:34:58;20.30;;;6.97;;
41875;SDS011;27555;50.808;4.402;2023-04-06T00:37:23;16.08;;;7.30;;
41875;SDS011;27555;50.808;4.402;2023-04-06T00:39:49;13.80;;;7.13;;
41875;SDS011;27555;50.808;4.402;2023-04-06T00:42:16;13.50;;;6.78;;
41875;SDS011;27555;50.808;4.402;2023-04-06T00:44:50;18.58;;;7.13;;
41875;SDS011;27555;50.808;4.402;2023-04-06T00:47:19;20.48;;;7.18;;
41875;SDS011;27555;50.808;4.402;2023-04-06T00:49:46;14.95;;;6.82;;
41875;SDS011;27555;50.808;4.402;2023-04-06T00:52:12;16.75;;;6.97;;
41875;SDS011;27555;50.808;4.402;2023-04-06T00:54:37;15.27;;;7.70;;
41875;SDS011;27555;50.808;4.402;2023-04-06T00:57:03;13.80;;;6.88;;
41875;SDS011;27555;50.808;4.402;2023-04-06T00:59:29;16.15;;;7.53;;
41875;SDS011;27555;50.808;4.402;2023-04-06T01:01:55;13.85;;;7.15;;
41875;SDS011;27555;50.808;4.402;2023-04-06T01:04:21;13.85;;;7.35;;
41875;SDS011;27555;50.808;4.402;2023-04-06T01:06:50;16.67;;;7.70;;
41875;SDS011;27555;50.808;4.402;2023-04-06T01:09:16;13.52;;;7.70;;
41875;SDS011;27555;50.808;4.402;2023-04-06T01:11:42;13.52;;;7.00;;
41875;SDS011;27555;50.808;4.402;2023-04-06T01:14:08;22.42;;;8.00;;
41875;SDS011;27555;50.808;4.402;2023-04-06T01:16:34;14.98;;;7.85;;
41875;SDS011;27555;50.808;4.402;2023-04-06T01:19:01;13.68;;;7.53;;
41875;SDS011;27555;50.808;4.402;2023-04-06T01:21:32;12.65;;;6.63;;
41875;SDS011;27555;50.808;4.402;2023-04-06T01:23:58;15.80;;;8.18;;
41875;SDS011;27555;50.808;4.402;2023-04-06T01:26:23;13.63;;;7.53;;
41875;SDS011;27555;50.808;4.402;2023-04-06T01:28:49;14.35;;;7.63;;
41875;SDS011;27555;50.808;4.402;2023-04-06T01:31:15;14.75;;;7.80;;
41875;SDS011;27555;50.808;4.402;2023-04-06T01:33:40;15.13;;;7.95;;
41875;SDS011;27555;50.808;4.402;2023-04-06T01:36:06;15.77;;;7.95;;
41875;SDS011;27555;50.808;4.402;2023-04-06T01:38:32;17.90;;;7.93;;
41875;SDS011;27555;50.808;4.402;2023-04-06T01:40:57;20.25;;;8.27;;
41875;SDS011;27555;50.808;4.402;2023-04-06T01:43:23;19.65;;;7.80;;
41875;SDS011;27555;50.808;4.402;2023-04-06T01:45:49;16.25;;;8.30;;
41875;SDS011;27555;50.808;4.402;2023-04-06T01:48:15;18.45;;;7.90;;
41875;SDS011;27555;50.808;4.402;2023-04-06T01:50:41;15.15;;;8.63;;
41875;SDS011;27555;50.808;4.402;2023-04-06T01:53:07;27.02;;;9.35;;
41875;SDS011;27555;50.808;4.402;2023-04-06T01:55:32;15.90;;;7.30;;
41875;SDS011;27555;50.808;4.402;2023-04-06T01:57:58;14.10;;;8.55;;
41875;SDS011;27555;50.808;4.402;2023-04-06T02:00:23;10.95;;;6.47;;
41875;SDS011;27555;50.808;4.402;2023-04-06T02:02:49;17.50;;;8.00;;
41875;SDS011;27555;50.808;4.402;2023-04-06T02:05:15;15.65;;;8.48;;
41875;SDS011;27555;50.808;4.402;2023-04-06T02:07:41;17.95;;;8.05;;
41875;SDS011;27555;50.808;4.402;2023-04-06T02:10:10;16.23;;;8.35;;
41875;SDS011;27555;50.808;4.402;2023-04-06T02:12:37;21.95;;;8.48;;
41875;SDS011;27555;50.808;4.402;2023-04-06T02:15:04;15.88;;;8.27;;
41875;SDS011;27555;50.808;4.402;2023-04-06T02:17:30;16.38;;;8.38;;
41875;SDS011;27555;50.808;4.402;2023-04-06T02:19:55;12.48;;;7.85;;
41875;SDS011;27555;50.808;4.402;2023-04-06T02:22:21;16.15;;;8.57;;
41875;SDS011;27555;50.808;4.402;2023-04-06T02:24:47;13.95;;;7.93;;
41875;SDS011;27555;50.808;4.402;2023-04-06T02:27:13;17.10;;;8.38;;
41875;SDS011;27555;50.808;4.402;2023-04-06T02:29:39;19.48;;;8.68;;
41875;SDS011;27555;50.808;4.402;2023-04-06T02:32:05;18.33;;;8.98;;
41875;SDS011;27555;50.808;4.402;2023-04-06T02:34:31;18.17;;;8.60;;
41875;SDS011;27555;50.808;4.402;2023-04-06T02:36:57;18.60;;;8.20;;
41875;SDS011;27555;50.808;4.402;2023-04-06T02:39:22;16.45;;;8.80;;
41875;SDS011;27555;50.808;4.402;2023-04-06T02:41:48;18.58;;;7.63;;
41875;SDS011;27555;50.808;4.402;2023-04-06T02:44:14;14.15;;;8.10;;
41875;SDS011;27555;50.808;4.402;2023-04-06T02:46:40;12.93;;;7.65;;
41875;SDS011;27555;50.808;4.402;2023-04-06T02:49:05;15.32;;;8.13;;
41875;SDS011;27555;50.808;4.402;2023-04-06T02:51:31;15.90;;;8.63;;
41875;SDS011;27555;50.808;4.402;2023-04-06T02:53:57;19.33;;;8.48;;
41875;SDS011;27555;50.808;4.402;2023-04-06T02:56:23;20.33;;;8.40;;
41875;SDS011;27555;50.808;4.402;2023-04-06T02:58:49;14.15;;;7.78;;
41875;SDS011;27555;50.808;4.402;2023-04-06T03:01:15;16.65;;;8.13;;
41875;SDS011;27555;50.808;4.402;2023-04-06T03:03:41;17.40;;;8.18;;
41875;SDS011;27555;50.808;4.402;2023-04-06T03:06:06;16.65;;;8.05;;
41875;SDS011;27555;50.808;4.402;2023-04-06T03:08:32;15.20;;;8.10;;
41875;SDS011;27555;50.808;4.402;2023-04-06T03:10:57;19.90;;;8.95;;
41875;SDS011;27555;50.808;4.402;2023-04-06T03:13:23;14.90;;;8.18;;
41875;SDS011;27555;50.808;4.402;2023-04-06T03:15:49;15.73;;;8.15;;
41875;SDS011;27555;50.808;4.402;2023-04-06T03:18:14;16.48;;;8.20;;
41875;SDS011;27555;50.808;4.402;2023-04-06T03:20:40;18.15;;;8.48;;
41875;SDS011;27555;50.808;4.402;2023-04-06T03:23:06;13.73;;;8.02;;
41875;SDS011;27555;50.808;4.402;2023-04-06T03:25:33;18.88;;;8.82;;
41875;SDS011;27555;50.808;4.402;2023-04-06T03:27:59;19.00;;;8.75;;
41875;SDS011;27555;50.808;4.402;2023-04-06T03:30:24;20.92;;;8.02;;
41875;SDS011;27555;50.808;4.402;2023-04-06T03:32:51;20.42;;;8.93;;
41875;SDS011;27555;50.808;4.402;2023-04-06T03:35:17;13.18;;;8.05;;
41875;SDS011;27555;50.808;4.402;2023-04-06T03:37:42;13.48;;;7.93;;
41875;SDS011;27555;50.808;4.402;2023-04-06T03:40:08;18.15;;;8.38;;
41875;SDS011;27555;50.808;4.402;2023-04-06T03:42:34;16.42;;;8.38;;
41875;SDS011;27555;50.808;4.402;2023-04-06T03:45:00;15.00;;;8.20;;
41875;SDS011;27555;50.808;4.402;2023-04-06T03:47:25;14.23;;;8.27;;
41875;SDS011;27555;50.808;4.402;2023-04-06T03:49:51;24.67;;;7.72;;
41875;SDS011;27555;50.808;4.402;2023-04-06T03:52:16;18.73;;;9.18;;
41875;SDS011;27555;50.808;4.402;2023-04-06T03:54:42;14.02;;;7.97;;
41875;SDS011;27555;50.808;4.402;2023-04-06T03:57:08;14.45;;;8.70;;
41875;SDS011;27555;50.808;4.402;2023-04-06T03:59:33;17.55;;;8.60;;
41875;SDS011;27555;50.808;4.402;2023-04-06T04:02:00;15.30;;;7.82;;
41875;SDS011;27555;50.808;4.402;2023-04-06T04:04:25;15.43;;;7.55;;
41875;SDS011;27555;50.808;4.402;2023-04-06T04:06:51;14.38;;;7.32;;
41875;SDS011;27555;50.808;4.402;2023-04-06T04:09:17;15.77;;;8.43;;
41875;SDS011;27555;50.808;4.402;2023-04-06T04:11:42;15.25;;;8.77;;
41875;SDS011;27555;50.808;4.402;2023-04-06T04:14:08;22.17;;;9.43;;
41875;SDS011;27555;50.808;4.402;2023-04-06T04:16:33;17.00;;;8.25;;
41875;SDS011;27555;50.808;4.402;2023-04-06T04:18:59;12.93;;;7.63;;
41875;SDS011;27555;50.808;4.402;2023-04-06T04:21:25;16.45;;;7.50;;
41875;SDS011;27555;50.808;4.402;2023-04-06T04:23:51;17.02;;;8.45;;
41875;SDS011;27555;50.808;4.402;2023-04-06T04:26:17;21.00;;;8.07;;
41875;SDS011;27555;50.808;4.402;2023-04-06T04:28:43;16.08;;;8.25;;
41875;SDS011;27555;50.808;4.402;2023-04-06T04:31:09;16.50;;;8.32;;
41875;SDS011;27555;50.808;4.402;2023-04-06T04:33:35;16.02;;;8.10;;
41875;SDS011;27555;50.808;4.402;2023-04-06T04:36:00;20.90;;;8.50;;
41875;SDS011;27555;50.808;4.402;2023-04-06T04:38:26;22.35;;;8.25;;
41875;SDS011;27555;50.808;4.402;2023-04-06T04:40:52;13.73;;;7.57;;
41875;SDS011;27555;50.808;4.402;2023-04-06T04:43:17;22.48;;;9.32;;
41875;SDS011;27555;50.808;4.402;2023-04-06T04:45:43;17.13;;;8.75;;
41875;SDS011;27555;50.808;4.402;2023-04-06T04:48:09;15.00;;;8.18;;
41875;SDS011;27555;50.808;4.402;2023-04-06T04:50:35;21.88;;;8.98;;
41875;SDS011;27555;50.808;4.402;2023-04-06T04:53:00;20.42;;;9.00;;
41875;SDS011;27555;50.808;4.402;2023-04-06T04:55:26;16.80;;;8.52;;
41875;SDS011;27555;50.808;4.402;2023-04-06T04:57:54;16.00;;;8.02;;
41875;SDS011;27555;50.808;4.402;2023-04-06T05:00:19;14.43;;;8.35;;
41875;SDS011;27555;50.808;4.402;2023-04-06T05:02:45;17.98;;;8.52;;
41875;SDS011;27555;50.808;4.402;2023-04-06T05:05:11;14.68;;;7.68;;
41875;SDS011;27555;50.808;4.402;2023-04-06T05:07:37;16.63;;;8.68;;
41875;SDS011;27555;50.808;4.402;2023-04-06T05:10:02;16.52;;;8.18;;
41875;SDS011;27555;50.808;4.402;2023-04-06T05:12:28;18.25;;;8.40;;
41875;SDS011;27555;50.808;4.402;2023-04-06T05:14:54;15.50;;;8.50;;
41875;SDS011;27555;50.808;4.402;2023-04-06T05:17:20;18.70;;;8.48;;
41875;SDS011;27555;50.808;4.402;2023-04-06T05:19:45;18.25;;;8.32;;
41875;SDS011;27555;50.808;4.402;2023-04-06T05:22:11;23.20;;;9.43;;
41875;SDS011;27555;50.808;4.402;2023-04-06T05:24:39;17.85;;;8.60;;
41875;SDS011;27555;50.808;4.402;2023-04-06T05:27:05;16.10;;;8.25;;
41875;SDS011;27555;50.808;4.402;2023-04-06T05:29:31;22.98;;;8.20;;
41875;SDS011;27555;50.808;4.402;2023-04-06T05:31:56;20.67;;;8.50;;
41875;SDS011;27555;50.808;4.402;2023-04-06T05:34:22;15.93;;;9.00;;
41875;SDS011;27555;50.808;4.402;2023-04-06T05:36:48;19.80;;;10.27;;
41875;SDS011;27555;50.808;4.402;2023-04-06T05:39:13;17.52;;;9.57;;
41875;SDS011;27555;50.808;4.402;2023-04-06T05:41:39;19.67;;;9.73;;
41875;SDS011;27555;50.808;4.402;2023-04-06T05:44:05;21.33;;;9.32;;
41875;SDS011;27555;50.808;4.402;2023-04-06T05:46:31;18.33;;;9.45;;
41875;SDS011;27555;50.808;4.402;2023-04-06T05:48:56;20.35;;;9.00;;
41875;SDS011;27555;50.808;4.402;2023-04-06T05:51:22;17.45;;;8.57;;
41875;SDS011;27555;50.808;4.402;2023-04-06T05:53:48;28.23;;;9.70;;
41875;SDS011;27555;50.808;4.402;2023-04-06T05:56:13;16.10;;;8.77;;
41875;SDS011;27555;50.808;4.402;2023-04-06T05:58:39;15.65;;;8.77;;
41875;SDS011;27555;50.808;4.402;2023-04-06T06:01:05;17.77;;;9.63;;
41875;SDS011;27555;50.808;4.402;2023-04-06T06:03:30;19.85;;;10.10;;
41875;SDS011;27555;50.808;4.402;2023-04-06T06:06:00;22.02;;;10.35;;
41875;SDS011;27555;50.808;4.402;2023-04-06T06:08:26;25.83;;;10.75;;
41875;SDS011;27555;50.808;4.402;2023-04-06T06:10:52;31.45;;;11.57;;
41875;SDS011;27555;50.808;4.402;2023-04-06T06:13:18;25.38;;;10.02;;
41875;SDS011;27555;50.808;4.402;2023-04-06T06:15:44;24.33;;;11.32;;
41875;SDS011;27555;50.808;4.402;2023-04-06T06:18:10;20.27;;;11.05;;
41875;SDS011;27555;50.808;4.402;2023-04-06T06:20:36;21.23;;;10.52;;
41875;SDS011;27555;50.808;4.402;2023-04-06T06:23:01;22.92;;;11.02;;
41875;SDS011;27555;50.808;4.402;2023-04-06T06:25:28;21.90;;;11.32;;
41875;SDS011;27555;50.808;4.402;2023-04-06T06:27:55;21.05;;;10.48;;
41875;SDS011;27555;50.808;4.402;2023-04-06T06:30:21;23.65;;;11.23;;
41875;SDS011;27555;50.808;4.402;2023-04-06T06:32:49;23.95;;;10.48;;
41875;SDS011;27555;50.808;4.402;2023-04-06T06:35:16;41.20;;;11.32;;
41875;SDS011;27555;50.808;4.402;2023-04-06T06:37:42;23.48;;;10.90;;
41875;SDS011;27555;50.808;4.402;2023-04-06T06:40:08;23.40;;;10.73;;
41875;SDS011;27555;50.808;4.402;2023-04-06T06:42:35;22.20;;;11.27;;
41875;SDS011;27555;50.808;4.402;2023-04-06T06:45:01;21.13;;;11.15;;
41875;SDS011;27555;50.808;4.402;2023-04-06T06:47:27;20.92;;;10.52;;
41875;SDS011;27555;50.808;4.402;2023-04-06T06:49:53;20.67;;;10.45;;
41875;SDS011;27555;50.808;4.402;2023-04-06T06:52:18;20.27;;;10.77;;
41875;SDS011;27555;50.808;4.402;2023-04-06T06:54:44;19.48;;;10.15;;
41875;SDS011;27555;50.808;4.402;2023-04-06T06:57:10;21.23;;;10.13;;
41875;SDS011;27555;50.808;4.402;2023-04-06T06:59:35;18.88;;;10.70;;
41875;SDS011;27555;50.808;4.402;2023-04-06T07:02:01;21.23;;;10.63;;
41875;SDS011;27555;50.808;4.402;2023-04-06T07:04:27;18.55;;;10.32;;
41875;SDS011;27555;50.808;4.402;2023-04-06T07:06:52;21.55;;;10.88;;
41875;SDS011;27555;50.808;4.402;2023-04-06T07:09:18;16.83;;;9.75;;
41875;SDS011;27555;50.808;4.402;2023-04-06T07:11:44;19.40;;;11.18;;
41875;SDS011;27555;50.808;4.402;2023-04-06T07:14:09;21.17;;;11.95;;
41875;SDS011;27555;50.808;4.402;2023-04-06T07:16:36;23.95;;;12.07;;
41875;SDS011;27555;50.808;4.402;2023-04-06T07:19:02;19.42;;;10.85;;
41875;SDS011;27555;50.808;4.402;2023-04-06T07:21:28;19.50;;;10.18;;
41875;SDS011;27555;50.808;4.402;2023-04-06T07:23:54;20.73;;;10.68;;
41875;SDS011;27555;50.808;4.402;2023-04-06T07:26:19;20.58;;;9.10;;
41875;SDS011;27555;50.808;4.402;2023-04-06T07:28:45;20.38;;;10.25;;
41875;SDS011;27555;50.808;4.402;2023-04-06T07:31:11;19.83;;;11.55;;
41875;SDS011;27555;50.808;4.402;2023-04-06T07:33:38;21.63;;;10.00;;
41875;SDS011;27555;50.808;4.402;2023-04-06T07:36:05;17.65;;;8.52;;
41875;SDS011;27555;50.808;4.402;2023-04-06T07:38:30;15.15;;;8.90;;
41875;SDS011;27555;50.808;4.402;2023-04-06T07:40:56;15.50;;;8.60;;
41875;SDS011;27555;50.808;4.402;2023-04-06T07:43:21;16.52;;;8.65;;
41875;SDS011;27555;50.808;4.402;2023-04-06T07:45:47;16.50;;;9.13;;
41875;SDS011;27555;50.808;4.402;2023-04-06T07:48:13;18.13;;;7.97;;
41875;SDS011;27555;50.808;4.402;2023-04-06T07:50:39;13.35;;;8.18;;
41875;SDS011;27555;50.808;4.402;2023-04-06T07:53:04;16.05;;;8.23;;
41875;SDS011;27555;50.808;4.402;2023-04-06T07:55:30;17.92;;;9.10;;
41875;SDS011;27555;50.808;4.402;2023-04-06T07:57:56;18.83;;;8.85;;
41875;SDS011;27555;50.808;4.402;2023-04-06T08:00:21;18.38;;;8.55;;
41875;SDS011;27555;50.808;4.402;2023-04-06T08:02:47;14.85;;;9.18;;
41875;SDS011;27555;50.808;4.402;2023-04-06T08:05:13;13.73;;;7.43;;
41875;SDS011;27555;50.808;4.402;2023-04-06T08:07:39;16.60;;;9.00;;
41875;SDS011;27555;50.808;4.402;2023-04-06T08:10:05;16.33;;;8.65;;
41875;SDS011;27555;50.808;4.402;2023-04-06T08:12:31;19.38;;;9.15;;
41875;SDS011;27555;50.808;4.402;2023-04-06T08:14:58;14.32;;;8.45;;
41875;SDS011;27555;50.808;4.402;2023-04-06T08:17:24;15.27;;;8.68;;
41875;SDS011;27555;50.808;4.402;2023-04-06T08:19:50;14.32;;;7.75;;
41875;SDS011;27555;50.808;4.402;2023-04-06T08:22:16;13.43;;;7.57;;
41875;SDS011;27555;50.808;4.402;2023-04-06T08:24:41;16.48;;;9.05;;
41875;SDS011;27555;50.808;4.402;2023-04-06T08:27:07;19.38;;;8.30;;
41875;SDS011;27555;50.808;4.402;2023-04-06T08:29:33;12.07;;;7.63;;
41875;SDS011;27555;50.808;4.402;2023-04-06T08:31:58;13.77;;;7.15;;
41875;SDS011;27555;50.808;4.402;2023-04-06T08:34:24;16.48;;;8.15;;
41875;SDS011;27555;50.808;4.402;2023-04-06T08:36:50;14.75;;;7.88;;
41875;SDS011;27555;50.808;4.402;2023-04-06T08:39:15;13.95;;;8.10;;
41875;SDS011;27555;50.808;4.402;2023-04-06T08:41:42;20.55;;;9.05;;
41875;SDS011;27555;50.808;4.402;2023-04-06T08:44:08;12.05;;;7.30;;
41875;SDS011;27555;50.808;4.402;2023-04-06T08:46:34;12.57;;;7.35;;
41875;SDS011;27555;50.808;4.402;2023-04-06T08:49:01;14.57;;;7.28;;
41875;SDS011;27555;50.808;4.402;2023-04-06T08:51:28;13.95;;;7.88;;
41875;SDS011;27555;50.808;4.402;2023-04-06T08:53:55;15.75;;;7.28;;
41875;SDS011;27555;50.808;4.402;2023-04-06T08:56:24;14.38;;;7.03;;
41875;SDS011;27555;50.808;4.402;2023-04-06T08:58:52;13.73;;;7.35;;
41875;SDS011;27555;50.808;4.402;2023-04-06T09:01:20;14.02;;;7.45;;
41875;SDS011;27555;50.808;4.402;2023-04-06T09:03:46;11.02;;;7.18;;
41875;SDS011;27555;50.808;4.402;2023-04-06T09:06:15;16.77;;;7.65;;
41875;SDS011;27555;50.808;4.402;2023-04-06T09:08:40;19.65;;;8.77;;
41875;SDS011;27555;50.808;4.402;2023-04-06T09:11:07;11.50;;;6.88;;
41875;SDS011;27555;50.808;4.402;2023-04-06T09:13:52;11.35;;;6.65;;
41875;SDS011;27555;50.808;4.402;2023-04-06T09:16:19;10.52;;;6.90;;
41875;SDS011;27555;50.808;4.402;2023-04-06T09:18:46;15.55;;;7.45;;
41875;SDS011;27555;50.808;4.402;2023-04-06T09:21:12;12.40;;;7.07;;
41875;SDS011;27555;50.808;4.402;2023-04-06T09:23:38;11.95;;;7.25;;
41875;SDS011;27555;50.808;4.402;2023-04-06T09:28:40;13.35;;;6.75;;
41875;SDS011;27555;50.808;4.402;2023-04-06T09:31:10;16.10;;;8.45;;
41875;SDS011;27555;50.808;4.402;2023-04-06T09:33:38;11.98;;;6.55;;
41875;SDS011;27555;50.808;4.402;2023-04-06T09:36:06;13.25;;;6.50;;
41875;SDS011;27555;50.808;4.402;2023-04-06T09:38:34;15.20;;;7.05;;
41875;SDS011;27555;50.808;4.402;2023-04-06T09:41:03;14.68;;;6.72;;
41875;SDS011;27555;50.808;4.402;2023-04-06T09:43:29;10.20;;;5.57;;
41875;SDS011;27555;50.808;4.402;2023-04-06T09:45:55;9.40;;;5.90;;
41875;SDS011;27555;50.808;4.402;2023-04-06T09:48:21;9.70;;;5.32;;
41875;SDS011;27555;50.808;4.402;2023-04-06T09:50:49;9.70;;;5.40;;
41875;SDS011;27555;50.808;4.402;2023-04-06T09:53:20;12.02;;;6.90;;
41875;SDS011;27555;50.808;4.402;2023-04-06T09:55:50;13.65;;;6.40;;
41875;SDS011;27555;50.808;4.402;2023-04-06T09:58:18;12.30;;;7.15;;
41875;SDS011;27555;50.808;4.402;2023-04-06T10:00:58;19.95;;;7.28;;
41875;SDS011;27555;50.808;4.402;2023-04-06T10:03:40;15.73;;;6.88;;
41875;SDS011;27555;50.808;4.402;2023-04-06T10:06:28;9.55;;;5.95;;
41875;SDS011;27555;50.808;4.402;2023-04-06T10:08:58;13.52;;;6.10;;
41875;SDS011;27555;50.808;4.402;2023-04-06T10:11:26;11.40;;;6.60;;
41875;SDS011;27555;50.808;4.402;2023-04-06T10:13:52;15.20;;;6.50;;
41875;SDS011;27555;50.808;4.402;2023-04-06T10:16:20;11.68;;;6.70;;
41875;SDS011;27555;50.808;4.402;2023-04-06T10:18:49;8.35;;;5.25;;
41875;SDS011;27555;50.808;4.402;2023-04-06T10:21:20;13.60;;;6.95;;
41875;SDS011;27555;50.808;4.402;2023-04-06T10:23:48;13.15;;;7.45;;
41875;SDS011;27555;50.808;4.402;2023-04-06T10:26:20;10.88;;;6.65;;
41875;SDS011;27555;50.808;4.402;2023-04-06T10:28:46;11.73;;;6.97;;
41875;SDS011;27555;50.808;4.402;2023-04-06T10:31:14;11.52;;;6.75;;
41875;SDS011;27555;50.808;4.402;2023-04-06T10:33:39;11.07;;;7.75;;
41875;SDS011;27555;50.808;4.402;2023-04-06T10:36:12;12.73;;;7.20;;
41875;SDS011;27555;50.808;4.402;2023-04-06T10:38:53;12.82;;;7.55;;
41875;SDS011;27555;50.808;4.402;2023-04-06T10:41:20;12.93;;;6.97;;
41875;SDS011;27555;50.808;4.402;2023-04-06T10:43:54;10.88;;;7.38;;
41875;SDS011;27555;50.808;4.402;2023-04-06T10:46:28;12.18;;;7.65;;
41875;SDS011;27555;50.808;4.402;2023-04-06T10:48:55;12.85;;;6.43;;
41875;SDS011;27555;50.808;4.402;2023-04-06T10:51:24;10.95;;;7.43;;
41875;SDS011;27555;50.808;4.402;2023-04-06T10:53:55;9.73;;;6.68;;
41875;SDS011;27555;50.808;4.402;2023-04-06T10:56:23;9.88;;;6.70;;
41875;SDS011;27555;50.808;4.402;2023-04-06T10:58:53;15.43;;;8.15;;
41875;SDS011;27555;50.808;4.402;2023-04-06T11:01:23;13.23;;;7.35;;
41875;SDS011;27555;50.808;4.402;2023-04-06T11:03:53;12.10;;;7.78;;
41875;SDS011;27555;50.808;4.402;2023-04-06T11:06:24;12.93;;;7.90;;
41875;SDS011;27555;50.808;4.402;2023-04-06T11:08:52;11.40;;;6.75;;
41875;SDS011;27555;50.808;4.402;2023-04-06T11:11:19;14.75;;;6.95;;
41875;SDS011;27555;50.808;4.402;2023-04-06T11:13:48;11.68;;;6.93;;
41875;SDS011;27555;50.808;4.402;2023-04-06T11:16:16;12.10;;;6.68;;
41875;SDS011;27555;50.808;4.402;2023-04-06T11:21:16;10.88;;;6.80;;
41875;SDS011;27555;50.808;4.402;2023-04-06T11:23:43;11.95;;;6.78;;
41875;SDS011;27555;50.808;4.402;2023-04-06T11:26:12;12.75;;;6.72;;
41875;SDS011;27555;50.808;4.402;2023-04-06T11:28:42;11.70;;;7.43;;
41875;SDS011;27555;50.808;4.402;2023-04-06T11:31:09;12.70;;;7.77;;
41875;SDS011;27555;50.808;4.402;2023-04-06T11:33:38;10.40;;;6.57;;
41875;SDS011;27555;50.808;4.402;2023-04-06T11:36:04;11.55;;;7.00;;
41875;SDS011;27555;50.808;4.402;2023-04-06T11:38:30;10.80;;;6.95;;
41875;SDS011;27555;50.808;4.402;2023-04-06T11:40:56;13.50;;;7.50;;
41875;SDS011;27555;50.808;4.402;2023-04-06T11:43:28;10.88;;;7.00;;
41875;SDS011;27555;50.808;4.402;2023-04-06T11:46:01;13.40;;;8.80;;
41875;SDS011;27555;50.808;4.402;2023-04-06T11:48:28;11.70;;;7.43;;
41875;SDS011;27555;50.808;4.402;2023-04-06T11:50:55;11.00;;;7.63;;
41875;SDS011;27555;50.808;4.402;2023-04-06T11:53:22;11.40;;;7.03;;
41875;SDS011;27555;50.808;4.402;2023-04-06T11:55:48;14.48;;;7.88;;
41875;SDS011;27555;50.808;4.402;2023-04-06T11:58:13;12.15;;;8.20;;
41875;SDS011;27555;50.808;4.402;2023-04-06T12:00:39;18.52;;;9.32;;
41875;SDS011;27555;50.808;4.402;2023-04-06T12:03:09;12.43;;;7.78;;
41875;SDS011;27555;50.808;4.402;2023-04-06T12:05:36;15.90;;;8.13;;
41875;SDS011;27555;50.808;4.402;2023-04-06T12:08:01;14.68;;;8.35;;
41875;SDS011;27555;50.808;4.402;2023-04-06T12:10:27;11.23;;;7.55;;
41875;SDS011;27555;50.808;4.402;2023-04-06T12:12:53;11.75;;;7.85;;
41875;SDS011;27555;50.808;4.402;2023-04-06T12:15:18;12.63;;;7.57;;
41875;SDS011;27555;50.808;4.402;2023-04-06T12:17:44;12.10;;;7.82;;
41875;SDS011;27555;50.808;4.402;2023-04-06T12:20:10;12.73;;;7.75;;
41875;SDS011;27555;50.808;4.402;2023-04-06T12:22:35;10.60;;;7.72;;
41875;SDS011;27555;50.808;4.402;2023-04-06T12:25:01;12.15;;;6.55;;
41875;SDS011;27555;50.808;4.402;2023-04-06T12:27:27;12.35;;;7.75;;
41875;SDS011;27555;50.808;4.402;2023-04-06T12:29:53;11.60;;;7.93;;
41875;SDS011;27555;50.808;4.402;2023-04-06T12:32:18;13.52;;;8.40;;
41875;SDS011;27555;50.808;4.402;2023-04-06T12:34:44;13.45;;;8.65;;
41875;SDS011;27555;50.808;4.402;2023-04-06T12:37:10;13.68;;;7.90;;
41875;SDS011;27555;50.808;4.402;2023-04-06T12:39:36;13.80;;;8.30;;
41875;SDS011;27555;50.808;4.402;2023-04-06T12:42:01;11.55;;;7.68;;
41875;SDS011;27555;50.808;4.402;2023-04-06T12:44:27;15.02;;;7.80;;
41875;SDS011;27555;50.808;4.402;2023-04-06T12:46:53;12.52;;;8.30;;
41875;SDS011;27555;50.808;4.402;2023-04-06T12:49:20;15.10;;;7.68;;
41875;SDS011;27555;50.808;4.402;2023-04-06T12:51:46;13.35;;;8.23;;
41875;SDS011;27555;50.808;4.402;2023-04-06T12:54:12;11.13;;;7.55;;
41875;SDS011;27555;50.808;4.402;2023-04-06T12:56:38;15.45;;;7.63;;
41875;SDS011;27555;50.808;4.402;2023-04-06T12:59:04;11.68;;;7.75;;
41875;SDS011;27555;50.808;4.402;2023-04-06T13:01:30;12.52;;;7.80;;
41875;SDS011;27555;50.808;4.402;2023-04-06T13:03:56;12.77;;;8.05;;
41875;SDS011;27555;50.808;4.402;2023-04-06T13:06:22;15.00;;;8.05;;
41875;SDS011;27555;50.808;4.402;2023-04-06T13:08:52;11.23;;;8.10;;
41875;SDS011;27555;50.808;4.402;2023-04-06T13:11:18;13.50;;;7.80;;
41875;SDS011;27555;50.808;4.402;2023-04-06T13:13:45;12.80;;;8.02;;
41875;SDS011;27555;50.808;4.402;2023-04-06T13:16:11;11.75;;;8.25;;
41875;SDS011;27555;50.808;4.402;2023-04-06T13:18:36;13.75;;;8.07;;
41875;SDS011;27555;50.808;4.402;2023-04-06T13:21:03;14.07;;;9.02;;
41875;SDS011;27555;50.808;4.402;2023-04-06T13:23:32;12.00;;;7.55;;
41875;SDS011;27555;50.808;4.402;2023-04-06T13:26:00;13.18;;;7.20;;
41875;SDS011;27555;50.808;4.402;2023-04-06T13:28:30;13.75;;;8.43;;
41875;SDS011;27555;50.808;4.402;2023-04-06T13:30:57;13.85;;;8.25;;
41875;SDS011;27555;50.808;4.402;2023-04-06T13:33:24;13.55;;;8.20;;
41875;SDS011;27555;50.808;4.402;2023-04-06T13:35:50;19.58;;;9.30;;
41875;SDS011;27555;50.808;4.402;2023-04-06T13:38:15;11.25;;;7.90;;
41875;SDS011;27555;50.808;4.402;2023-04-06T13:40:41;12.52;;;8.80;;
41875;SDS011;27555;50.808;4.402;2023-04-06T13:43:07;13.07;;;7.95;;
41875;SDS011;27555;50.808;4.402;2023-04-06T13:45:33;15.07;;;8.25;;
41875;SDS011;27555;50.808;4.402;2023-04-06T13:47:59;17.83;;;8.30;;
41875;SDS011;27555;50.808;4.402;2023-04-06T13:50:25;12.82;;;8.23;;
41875;SDS011;27555;50.808;4.402;2023-04-06T13:52:51;16.05;;;9.27;;
41875;SDS011;27555;50.808;4.402;2023-04-06T13:55:17;16.90;;;9.48;;
41875;SDS011;27555;50.808;4.402;2023-04-06T13:57:43;11.88;;;8.15;;
41875;SDS011;27555;50.808;4.402;2023-04-06T14:00:09;13.65;;;8.20;;
41875;SDS011;27555;50.808;4.402;2023-04-06T14:02:36;11.60;;;8.18;;
41875;SDS011;27555;50.808;4.402;2023-04-06T14:05:02;14.80;;;8.30;;
41875;SDS011;27555;50.808;4.402;2023-04-06T14:07:28;15.95;;;8.45;;
41875;SDS011;27555;50.808;4.402;2023-04-06T14:09:54;13.68;;;8.75;;
41875;SDS011;27555;50.808;4.402;2023-04-06T14:12:19;14.07;;;9.20;;
41875;SDS011;27555;50.808;4.402;2023-04-06T14:14:45;15.30;;;8.82;;
41875;SDS011;27555;50.808;4.402;2023-04-06T14:17:11;16.60;;;8.98;;
41875;SDS011;27555;50.808;4.402;2023-04-06T14:19:36;14.55;;;8.68;;
41875;SDS011;27555;50.808;4.402;2023-04-06T14:22:02;12.52;;;7.88;;
41875;SDS011;27555;50.808;4.402;2023-04-06T14:24:29;12.60;;;7.97;;
41875;SDS011;27555;50.808;4.402;2023-04-06T14:26:55;12.63;;;8.23;;
41875;SDS011;27555;50.808;4.402;2023-04-06T14:29:21;12.40;;;8.40;;
41875;SDS011;27555;50.808;4.402;2023-04-06T14:31:47;13.20;;;8.32;;
41875;SDS011;27555;50.808;4.402;2023-04-06T14:34:13;12.70;;;8.40;;